Time;durP1;ratioP1;P1;durP2;ratioP2;P2;SDS_P1;SDS_P2;PMS_P1;PMS_P2;Temp;Humidity;BMP_temperature;BMP_pressure;BME280_temperature;BME280_humidity;BME280_pressure;Samples;Min_cycle;Max_cycle;Signal;HPM_P1;HPM_P2
2022/06/19 00:01:36;;;;;;;8.30;1.80;;;15.40;99.90;;;;;;5073708;28;20040;-78
2022/06/19 00:04:06;;;;;;;6.82;1.58;;;15.40;99.10;;;;;;5073854;28;20473;-79
2022/06/19 00:06:35;;;;;;;6.57;1.40;;;15.40;98.00;;;;;;5073693;28;20036;-78
2022/06/19 00:09:02;;;;;;;7.25;1.52;;;15.40;97.60;;;;;;5074362;28;20048;-77
2022/06/19 00:11:27;;;;;;;11.00;1.98;;;15.30;97.20;;;;;;5056802;28;20048;-78
2022/06/19 00:13:53;;;;;;;14.15;2.60;;;15.30;96.90;;;;;;5073141;28;20036;-78
2022/06/19 00:16:19;;;;;;;8.75;2.40;;;15.30;97.00;;;;;;5073405;28;20140;-78
2022/06/19 00:18:45;;;;;;;7.28;2.00;;;15.30;96.80;;;;;;5073934;28;20045;-79
2022/06/19 00:21:11;;;;;;;8.23;1.80;;;15.30;96.60;;;;;;5072883;28;20051;-78
2022/06/19 00:23:37;;;;;;;8.25;2.25;;;15.30;96.40;;;;;;5073058;28;20041;-78
2022/06/19 00:26:03;;;;;;;8.77;2.70;;;15.30;96.20;;;;;;5072935;28;20090;-78
2022/06/19 00:28:29;;;;;;;11.50;2.60;;;15.30;96.10;;;;;;5072271;28;20086;-78
2022/06/19 00:30:54;;;;;;;9.93;2.50;;;15.30;96.20;;;;;;5072332;28;20406;-78
2022/06/19 00:33:20;;;;;;;7.60;3.13;;;15.40;96.20;;;;;;5072932;28;20036;-78
2022/06/19 00:35:46;;;;;;;11.85;3.53;;;15.40;96.10;;;;;;5072756;28;20043;-78
2022/06/19 00:38:12;;;;;;;12.20;2.83;;;15.40;96.00;;;;;;5073643;28;20438;-77
2022/06/19 00:40:38;;;;;;;7.60;1.40;;;15.40;95.90;;;;;;5056293;28;20095;-79
2022/06/19 00:43:04;;;;;;;6.90;1.27;;;15.40;95.90;;;;;;5073141;28;20101;-78
2022/06/19 00:45:37;;;;;;;8.77;1.33;;;15.30;96.20;;;;;;5073970;28;20036;-79
2022/06/19 00:48:16;;;;;;;10.82;2.00;;;15.20;96.40;;;;;;5056706;28;20043;-77
2022/06/19 00:50:45;;;;;;;9.82;1.90;;;15.20;96.70;;;;;;5072614;28;20036;-78
2022/06/19 00:53:20;;;;;;;8.15;1.98;;;15.20;97.10;;;;;;5055664;28;20040;-78
2022/06/19 00:55:49;;;;;;;7.22;3.03;;;15.30;97.30;;;;;;5072304;28;20033;-78
2022/06/19 00:58:20;;;;;;;10.23;2.22;;;15.20;97.90;;;;;;5072580;28;20045;-79
2022/06/19 01:00:50;;;;;;;9.40;2.47;;;15.30;97.80;;;;;;5072115;28;20420;-77
2022/06/19 01:03:20;;;;;;;16.65;3.88;;;15.30;98.00;;;;;;5072562;28;20036;-78
2022/06/19 01:05:47;;;;;;;12.15;3.22;;;15.30;98.40;;;;;;5072746;28;20036;-78
2022/06/19 01:08:13;;;;;;;11.65;3.15;;;15.20;98.40;;;;;;5055655;28;20521;-79
2022/06/19 01:10:43;;;;;;;9.68;2.80;;;15.30;98.50;;;;;;5072355;28;20040;-78
2022/06/19 01:13:10;;;;;;;17.73;3.20;;;15.20;98.50;;;;;;5072759;28;20036;-78
2022/06/19 01:15:38;;;;;;;10.82;3.22;;;15.20;98.50;;;;;;5073622;28;20040;-79
2022/06/19 01:18:06;;;;;;;12.60;3.22;;;15.20;98.70;;;;;;5072710;28;20594;-79
2022/06/19 01:20:34;;;;;;;14.43;3.70;;;15.20;98.90;;;;;;5073066;28;20070;-79
2022/06/19 01:23:26;;;;;;;16.00;3.22;;;15.20;99.10;;;;;;5072028;28;20058;-79
2022/06/19 01:25:52;;;;;;;12.50;1.77;;;15.10;99.20;;;;;;5071829;28;20037;-78
2022/06/19 01:31:29;;;;;;;10.70;1.90;;;15.00;99.80;;;;;;5071620;28;20131;-78
2022/06/19 01:34:26;;;;;;;12.48;1.80;;;15.00;99.90;;;;;;5071940;28;20257;-78
2022/06/19 01:37:10;;;;;;;9.07;1.92;;;15.00;99.90;;;;;;5071735;28;20041;-78
2022/06/19 01:39:43;;;;;;;8.05;2.45;;;15.10;99.90;;;;;;5071539;28;20441;-78
2022/06/19 01:42:11;;;;;;;10.70;2.28;;;15.10;99.90;;;;;;5071664;28;20391;-79
2022/06/19 01:44:38;;;;;;;12.68;3.60;;;15.10;99.90;;;;;;5071427;28;20036;-78
2022/06/19 01:47:04;;;;;;;8.30;2.83;;;15.00;99.90;;;;;;5071335;28;20051;-78
2022/06/19 01:49:32;;;;;;;15.38;2.75;;;15.00;99.90;;;;;;5071652;28;20059;-78
2022/06/19 01:51:58;;;;;;;13.43;2.53;;;15.00;99.90;;;;;;5054384;28;20049;-78
2022/06/19 01:54:29;;;;;;;12.05;2.90;;;15.00;99.90;;;;;;5071032;28;20047;-78
2022/06/19 01:56:56;;;;;;;19.05;3.55;;;15.00;99.90;;;;;;5072392;28;20397;-78
2022/06/19 01:59:23;;;;;;;11.85;2.83;;;14.90;99.90;;;;;;5071203;28;20549;-78
2022/06/19 02:01:53;;;;;;;13.35;2.78;;;14.90;99.90;;;;;;5070552;28;20040;-78
2022/06/19 02:04:20;;;;;;;16.80;2.60;;;14.80;99.90;;;;;;5054729;28;20390;-79
2022/06/19 02:06:48;;;;;;;12.95;3.45;;;14.90;99.90;;;;;;5071373;28;20036;-79
2022/06/19 02:09:17;;;;;;;17.08;3.90;;;14.90;99.90;;;;;;5071569;28;20040;-78
2022/06/19 02:11:43;;;;;;;14.75;2.67;;;14.80;99.90;;;;;;5054284;28;20044;-78
2022/06/19 02:14:10;;;;;;;14.10;2.33;;;14.80;99.90;;;;;;5072454;28;20129;-78
2022/06/19 02:16:40;;;;;;;19.13;3.63;;;14.70;99.90;;;;;;5071173;28;20446;-78
2022/06/19 02:19:06;;;;;;;10.70;2.83;;;14.70;99.90;;;;;;5054152;28;20461;-77
2022/06/19 02:21:39;;;;;;;10.20;3.08;;;14.70;99.90;;;;;;5070864;28;20040;-78
2022/06/19 02:24:06;;;;;;;;;;;14.70;99.90;;;;;;5071341;28;20386;-78
2022/06/19 02:26:34;;;;;;;15.02;2.45;;;14.50;99.90;;;;;;5070659;28;19916;-77
2022/06/19 02:28:59;;;;;;;12.13;3.00;;;14.60;99.90;;;;;;5071148;28;20095;-78
2022/06/19 02:31:26;;;;;;;11.30;2.53;;;14.60;99.90;;;;;;5072506;28;20490;-78
2022/06/19 02:34:01;;;;;;;19.33;3.53;;;14.60;99.90;;;;;;5054445;28;20051;-78
2022/06/19 02:36:42;;;;;;;13.77;2.88;;;14.60;99.90;;;;;;5071076;28;20146;-78
2022/06/19 02:39:39;;;;;;;14.77;2.40;;;14.60;99.90;;;;;;5071065;28;20565;-78
2022/06/19 02:42:29;;;;;;;13.18;3.05;;;14.60;99.90;;;;;;5070805;28;20486;-78
2022/06/19 02:44:57;;;;;;;8.27;2.35;;;14.60;99.90;;;;;;5071043;28;20033;-78
2022/06/19 02:47:25;;;;;;;15.20;3.65;;;14.70;99.90;;;;;;5071206;28;20131;-79
2022/06/19 02:49:51;;;;;;;18.45;3.45;;;14.60;99.90;;;;;;5070555;28;20127;-79
2022/06/19 02:52:17;;;;;;;10.98;3.35;;;14.50;99.90;;;;;;5054573;28;20068;-77
2022/06/19 02:54:42;;;;;;;13.85;2.78;;;14.60;99.90;;;;;;5074549;28;20461;-77
2022/06/19 02:57:11;;;;;;;17.15;2.80;;;14.50;99.90;;;;;;5074793;28;20071;-77
2022/06/19 02:59:37;;;;;;;16.50;3.40;;;14.50;99.90;;;;;;5076838;28;20397;-81
2022/06/19 03:02:03;;;;;;;21.73;4.32;;;14.40;99.90;;;;;;5079672;28;20072;-80
2022/06/19 03:04:39;;;;;;;15.05;3.78;;;14.40;99.90;;;;;;5063656;28;20068;-80
2022/06/19 03:07:05;;;;;;;14.48;2.67;;;14.30;99.90;;;;;;5096950;28;20025;-83
2022/06/19 03:09:31;;;;;;;12.18;3.63;;;14.30;99.90;;;;;;5097625;28;20056;-81
2022/06/19 03:11:57;;;;;;;14.38;2.50;;;14.20;99.90;;;;;;5098466;28;20040;-80
2022/06/19 03:14:24;;;;;;;15.18;3.10;;;14.20;99.90;;;;;;5097871;28;20028;-82
2022/06/19 03:16:49;;;;;;;14.68;3.05;;;14.10;99.90;;;;;;5090740;28;20040;-80
2022/06/19 03:19:15;;;;;;;14.75;3.22;;;14.10;99.90;;;;;;5089075;28;20040;-81
2022/06/19 03:21:41;;;;;;;18.90;3.50;;;13.90;99.90;;;;;;5088037;28;20036;-80
2022/06/19 03:24:07;;;;;;;12.48;2.70;;;13.80;99.90;;;;;;5087546;28;20052;-79
2022/06/19 03:26:32;;;;;;;15.00;3.10;;;13.90;99.90;;;;;;5071260;28;20391;-81
2022/06/19 03:28:59;;;;;;;18.15;3.13;;;13.90;99.90;;;;;;5087795;28;20040;-82
2022/06/19 03:31:26;;;;;;;10.50;2.92;;;13.80;99.90;;;;;;5070338;28;20052;-81
2022/06/19 03:33:52;;;;;;;17.00;2.80;;;13.80;99.90;;;;;;5087671;28;20040;-81
2022/06/19 03:36:19;;;;;;;13.50;2.80;;;13.80;99.90;;;;;;5086934;28;20060;-80
2022/06/19 03:38:44;;;;;;;16.17;3.17;;;13.80;99.90;;;;;;5087182;28;20119;-81
2022/06/19 03:41:10;;;;;;;15.68;2.78;;;13.90;99.90;;;;;;5083225;28;20072;-79
2022/06/19 03:43:36;;;;;;;21.48;3.35;;;13.90;99.90;;;;;;5085365;28;20036;-79
2022/06/19 03:46:14;;;;;;;11.25;2.53;;;13.90;99.90;;;;;;5083606;28;20044;-79
2022/06/19 03:48:44;;;;;;;15.20;2.42;;;14.00;99.90;;;;;;5080718;28;20047;-79
2022/06/19 03:51:10;;;;;;;13.45;2.50;;;14.10;99.90;;;;;;5082184;28;20406;-79
2022/06/19 03:53:36;;;;;;;13.13;3.47;;;14.10;99.90;;;;;;5064961;28;20044;-79
2022/06/19 03:56:03;;;;;;;13.30;3.45;;;14.00;99.90;;;;;;5078715;28;20036;-83
2022/06/19 03:58:45;;;;;;;15.05;2.42;;;13.90;99.90;;;;;;5065830;28;20055;-79
2022/06/19 04:01:15;;;;;;;13.60;3.00;;;13.90;99.90;;;;;;5078746;28;20041;-79
2022/06/19 04:03:41;;;;;;;11.98;2.30;;;13.80;99.90;;;;;;5078945;28;20467;-80
2022/06/19 04:06:09;;;;;;;16.13;2.30;;;13.80;99.90;;;;;;5079591;28;20076;-79
2022/06/19 04:08:34;;;;;;;9.90;1.90;;;13.80;99.90;;;;;;5061088;28;20036;-79
2022/06/19 04:11:00;;;;;;;16.25;2.47;;;13.80;99.90;;;;;;5059636;28;20037;-78
2022/06/19 04:13:26;;;;;;;11.80;2.45;;;13.80;99.90;;;;;;5077084;28;20382;-80
2022/06/19 04:15:51;;;;;;;10.75;2.10;;;13.70;99.90;;;;;;5078459;28;20089;-81
2022/06/19 04:18:17;;;;;;;13.82;2.67;;;13.70;99.90;;;;;;5079529;28;20037;-80
2022/06/19 04:20:42;;;;;;;9.68;2.03;;;13.70;99.90;;;;;;5064031;28;20045;-80
2022/06/19 04:23:09;;;;;;;11.82;2.03;;;13.60;99.90;;;;;;5082112;28;20037;-81
2022/06/19 04:25:35;;;;;;;11.43;2.42;;;13.60;99.90;;;;;;5081381;28;20044;-79
2022/06/19 04:28:01;;;;;;;17.17;2.78;;;13.50;99.90;;;;;;5096328;22;20056;-72
2022/06/19 04:30:26;;;;;;;11.48;1.88;;;13.50;99.90;;;;;;5073048;28;20417;-72
2022/06/19 04:32:52;;;;;;;16.90;3.75;;;13.40;99.90;;;;;;5073593;28;20039;-72
2022/06/19 04:35:18;;;;;;;13.23;2.65;;;13.50;99.90;;;;;;5074070;28;20090;-72
2022/06/19 04:37:43;;;;;;;15.23;2.88;;;13.40;99.90;;;;;;5073980;28;20046;-73
2022/06/19 04:40:11;;;;;;;15.70;3.03;;;13.40;99.90;;;;;;5073462;28;20036;-73
2022/06/19 04:42:36;;;;;;;13.00;2.47;;;13.40;99.90;;;;;;5073708;28;20036;-73
2022/06/19 04:45:02;;;;;;;10.00;2.70;;;13.30;99.90;;;;;;5073908;28;20119;-73
2022/06/19 04:47:28;;;;;;;12.07;2.58;;;13.20;99.90;;;;;;5072331;28;20549;-73
2022/06/19 04:49:53;;;;;;;12.48;3.42;;;13.30;99.90;;;;;;5073501;28;20037;-72
2022/06/19 04:52:19;;;;;;;15.27;3.95;;;13.20;99.90;;;;;;5073541;28;20045;-73
2022/06/19 04:54:45;;;;;;;12.55;2.92;;;13.20;99.90;;;;;;5073449;28;20044;-75
2022/06/19 04:57:11;;;;;;;8.38;2.72;;;13.00;99.90;;;;;;5073399;28;20046;-73
2022/06/19 04:59:37;;;;;;;13.55;3.25;;;13.00;99.90;;;;;;5073349;28;20466;-73
2022/06/19 05:02:03;;;;;;;10.05;2.17;;;13.00;99.90;;;;;;5071708;28;20037;-74
2022/06/19 05:04:29;;;;;;;9.93;2.20;;;13.10;99.90;;;;;;5073417;28;20091;-75
2022/06/19 05:06:54;;;;;;;8.50;1.58;;;13.20;99.90;;;;;;5055308;28;20072;-73
2022/06/19 05:09:20;;;;;;;6.60;1.67;;;13.10;99.90;;;;;;5073246;28;20414;-73
2022/06/19 05:11:45;;;;;;;6.10;1.63;;;13.00;99.90;;;;;;5072850;28;20081;-74
2022/06/19 05:14:11;;;;;;;7.13;1.48;;;12.90;99.90;;;;;;5073051;28;20124;-74
2022/06/19 05:16:36;;;;;;;12.75;2.20;;;12.80;99.90;;;;;;5072638;28;20505;-73
2022/06/19 05:19:03;;;;;;;4.53;1.35;;;12.80;99.90;;;;;;5073146;28;20456;-73
2022/06/19 05:21:29;;;;;;;9.13;1.55;;;12.70;99.90;;;;;;5072600;28;20502;-73
2022/06/19 05:23:55;;;;;;;12.60;2.70;;;12.60;99.90;;;;;;5072941;28;20037;-73
2022/06/19 05:26:28;;;;;;;10.73;2.45;;;12.70;99.90;;;;;;5072686;28;20102;-73
2022/06/19 05:28:55;;;;;;;10.93;1.85;;;12.70;99.90;;;;;;5072809;28;20119;-73
2022/06/19 05:31:22;;;;;;;10.75;1.73;;;12.70;99.90;;;;;;5072478;28;20483;-74
2022/06/19 05:33:48;;;;;;;11.07;2.13;;;12.80;99.90;;;;;;5072720;28;20498;-73
2022/06/19 05:36:14;;;;;;;12.93;2.00;;;12.80;99.90;;;;;;5072694;28;20036;-74
2022/06/19 05:38:39;;;;;;;8.05;2.15;;;12.90;99.90;;;;;;5072706;28;20592;-73
2022/06/19 05:41:05;;;;;;;12.38;2.72;;;13.00;99.90;;;;;;5072186;28;20469;-73
2022/06/19 05:43:34;;;;;;;10.90;2.58;;;13.00;99.90;;;;;;5072803;28;20095;-73
2022/06/19 05:46:05;;;;;;;11.30;2.40;;;13.00;99.90;;;;;;5072499;28;20037;-74
2022/06/19 05:48:32;;;;;;;13.73;3.63;;;13.00;99.90;;;;;;5072616;28;20082;-73
2022/06/19 05:51:07;;;;;;;9.65;2.40;;;13.10;99.90;;;;;;5072224;28;20040;-73
2022/06/19 05:53:36;;;;;;;15.38;3.15;;;13.20;99.90;;;;;;5072309;28;20063;-73
2022/06/19 05:56:03;;;;;;;13.75;2.42;;;13.10;99.90;;;;;;5072493;28;20394;-74
2022/06/19 05:58:29;;;;;;;10.30;1.98;;;13.10;99.90;;;;;;5070995;28;20048;-73
2022/06/19 06:00:55;;;;;;;9.80;2.42;;;13.20;99.90;;;;;;5070740;28;20094;-74
2022/06/19 06:03:22;;;;;;;12.18;2.55;;;13.30;99.90;;;;;;5072293;28;20497;-73
2022/06/19 06:05:48;;;;;;;14.07;2.85;;;13.30;99.90;;;;;;5071199;28;20040;-73
2022/06/19 06:08:14;;;;;;;14.18;3.58;;;13.20;99.90;;;;;;5071987;28;20097;-73
2022/06/19 06:10:40;;;;;;;11.63;3.25;;;13.40;99.90;;;;;;5072012;28;20489;-73
2022/06/19 06:13:06;;;;;;;11.60;2.28;;;13.40;99.90;;;;;;5072240;28;20037;-73
2022/06/19 06:15:32;;;;;;;6.85;2.30;;;13.40;99.90;;;;;;5072153;28;20519;-73
2022/06/19 06:17:59;;;;;;;14.80;3.33;;;13.40;99.90;;;;;;5072012;28;20059;-73
2022/06/19 06:20:26;;;;;;;18.63;2.83;;;13.40;99.90;;;;;;5071682;28;20410;-73
2022/06/19 06:22:51;;;;;;;15.18;3.08;;;13.40;99.90;;;;;;5071794;28;20039;-73
2022/06/19 06:25:17;;;;;;;21.35;4.07;;;13.40;99.90;;;;;;5071830;28;20033;-73
2022/06/19 06:27:42;;;;;;;10.55;2.25;;;13.30;99.90;;;;;;5069516;28;20038;-74
2022/06/19 06:30:10;;;;;;;17.33;4.00;;;13.30;99.90;;;;;;5071672;28;20039;-72
2022/06/19 06:32:35;;;;;;;15.23;2.70;;;13.30;99.90;;;;;;5071840;28;20036;-73
2022/06/19 06:35:01;;;;;;;10.95;2.45;;;13.30;99.90;;;;;;5071830;28;20036;-74
2022/06/19 06:37:27;;;;;;;11.27;2.20;;;13.40;99.90;;;;;;5071544;28;20033;-75
2022/06/19 06:39:52;;;;;;;16.27;2.42;;;13.40;99.90;;;;;;5070511;28;20036;-75
2022/06/19 06:42:18;;;;;;;12.80;3.00;;;13.40;99.90;;;;;;5071747;28;20059;-73
2022/06/19 06:44:43;;;;;;;15.57;4.15;;;13.50;99.90;;;;;;5071776;28;20463;-74
2022/06/19 06:47:09;;;;;;;8.95;2.15;;;13.60;99.90;;;;;;5071510;28;20533;-75
2022/06/19 06:49:34;;;;;;;18.80;3.15;;;13.70;99.90;;;;;;5071685;28;20039;-74
2022/06/19 06:52:00;;;;;;;18.45;3.05;;;13.70;99.90;;;;;;5071194;28;20120;-73
2022/06/19 06:54:26;;;;;;;18.90;2.80;;;13.70;99.90;;;;;;5071855;28;20112;-73
2022/06/19 06:56:55;;;;;;;14.73;3.10;;;13.70;99.90;;;;;;5071631;28;20036;-74
2022/06/19 06:59:20;;;;;;;13.73;2.70;;;13.80;99.90;;;;;;5071563;28;20028;-74
2022/06/19 07:01:46;;;;;;;15.30;3.55;;;13.90;99.90;;;;;;5053222;28;20603;-74
2022/06/19 07:04:12;;;;;;;14.07;3.80;;;13.90;99.90;;;;;;5071495;28;20127;-75
2022/06/19 07:06:37;;;;;;;13.23;2.92;;;13.90;99.90;;;;;;5071293;28;20056;-73
2022/06/19 07:09:04;;;;;;;12.77;3.10;;;13.80;99.90;;;;;;5070494;28;20047;-74
2022/06/19 07:11:42;;;;;;;18.17;2.47;;;13.90;99.90;;;;;;5069875;28;20502;-74
2022/06/19 07:14:08;;;;;;;20.00;3.03;;;13.80;99.90;;;;;;5071421;28;20036;-75
2022/06/19 07:16:34;;;;;;;12.27;2.42;;;13.80;99.90;;;;;;5071378;28;20037;-74
2022/06/19 07:19:00;;;;;;;14.23;3.28;;;13.80;99.90;;;;;;5071199;28;20140;-74
2022/06/19 07:21:27;;;;;;;16.40;3.50;;;13.80;99.90;;;;;;5071144;28;20036;-75
2022/06/19 07:23:53;;;;;;;19.95;3.28;;;13.90;99.90;;;;;;5071472;28;20040;-74
2022/06/19 07:26:21;;;;;;;15.52;4.20;;;13.80;99.90;;;;;;5070013;28;20506;-73
2022/06/19 07:28:47;;;;;;;19.52;3.75;;;13.80;99.90;;;;;;5071365;28;20037;-75
2022/06/19 07:31:13;;;;;;;13.02;3.03;;;13.80;99.90;;;;;;5071000;28;20098;-74
2022/06/19 07:33:39;;;;;;;16.30;2.75;;;13.80;99.90;;;;;;5071189;28;20071;-74
2022/06/19 07:36:13;;;;;;;16.95;3.25;;;13.80;99.90;;;;;;5071079;28;20043;-74
2022/06/19 07:38:39;;;;;;;16.17;4.95;;;13.90;99.90;;;;;;5054627;28;20516;-73
2022/06/19 07:41:05;;;;;;;18.23;3.42;;;13.90;99.90;;;;;;5074481;28;20040;-72
2022/06/19 07:43:30;;;;;;;10.30;3.05;;;13.90;99.90;;;;;;5074937;28;20098;-72
2022/06/19 07:45:56;;;;;;;14.18;2.95;;;13.90;99.90;;;;;;5074410;28;20035;-72
2022/06/19 07:51:05;;;;;;;11.00;2.80;;;14.20;99.90;;;;;;5074523;28;20501;-72
2022/06/19 07:53:31;;;;;;;9.80;2.83;;;14.10;99.90;;;;;;5074749;28;20036;-72
2022/06/19 07:55:56;;;;;;;13.48;3.30;;;14.20;99.90;;;;;;5073390;28;20032;-72
2022/06/19 07:58:22;;;;;;;10.48;2.42;;;14.20;99.90;;;;;;5074131;28;20037;-72
2022/06/19 08:00:48;;;;;;;19.42;3.03;;;14.30;99.90;;;;;;5054206;28;20037;-71
2022/06/19 08:03:13;;;;;;;14.10;2.88;;;14.30;99.90;;;;;;5054180;28;20094;-72
2022/06/19 08:05:41;;;;;;;15.40;3.17;;;14.30;99.90;;;;;;5067988;28;20505;-72
2022/06/19 08:08:14;;;;;;;15.63;2.80;;;14.10;99.90;;;;;;5074363;28;20465;-72
2022/06/19 08:10:42;;;;;;;;;;;14.20;99.90;;;;;;5074549;28;20048;-71
2022/06/19 08:13:09;;;;;;;12.02;2.50;;;14.00;99.90;;;;;;5074076;28;19916;-72
2022/06/19 08:15:35;;;;;;;12.13;2.40;;;14.10;99.90;;;;;;5074252;28;20043;-72
2022/06/19 08:18:01;;;;;;;8.82;2.25;;;14.20;99.90;;;;;;5074035;28;20509;-73
2022/06/19 08:20:28;;;;;;;11.23;2.38;;;14.30;99.90;;;;;;5073646;28;20041;-73
2022/06/19 08:22:54;;;;;;;12.13;2.97;;;14.30;99.90;;;;;;5074192;28;20441;-74
2022/06/19 08:25:24;;;;;;;11.35;2.72;;;14.40;99.90;;;;;;5074005;28;20041;-74
2022/06/19 08:27:51;;;;;;;16.58;3.90;;;14.40;99.90;;;;;;5073677;28;20025;-72
2022/06/19 08:30:25;;;;;;;13.30;2.22;;;14.40;99.90;;;;;;5073780;28;20040;-72
2022/06/19 08:32:51;;;;;;;9.80;1.67;;;14.30;99.90;;;;;;5073994;28;20036;-72
2022/06/19 08:35:17;;;;;;;10.73;3.13;;;14.40;99.90;;;;;;5073838;28;20045;-73
2022/06/19 08:37:45;;;;;;;11.13;2.30;;;14.40;99.90;;;;;;5073701;28;20562;-73
2022/06/19 08:40:37;;;;;;;10.57;2.30;;;14.50;99.90;;;;;;5055277;28;20498;-71
2022/06/19 08:43:09;;;;;;;12.65;2.92;;;14.50;99.90;;;;;;5073802;28;20117;-72
2022/06/19 08:45:56;;;;;;;11.90;2.10;;;14.60;99.90;;;;;;5073814;28;20037;-71
2022/06/19 08:48:43;;;;;;;12.63;3.13;;;14.60;99.90;;;;;;5073579;28;20267;-72
2022/06/19 08:51:24;;;;;;;15.38;2.92;;;14.80;99.90;;;;;;5070748;28;20053;-73
2022/06/19 08:54:17;;;;;;;7.20;1.70;;;14.80;99.90;;;;;;5073487;28;20040;-72
2022/06/19 08:56:49;;;;;;;10.75;2.45;;;14.90;99.90;;;;;;5073215;28;20039;-73
2022/06/19 08:59:51;;;;;;;12.32;3.05;;;14.70;99.90;;;;;;5073304;28;20110;-72
2022/06/19 09:02:37;;;;;;;15.57;3.58;;;14.70;99.90;;;;;;5069859;28;20101;-71
2022/06/19 09:05:47;;;;;;;9.40;3.20;;;14.80;99.90;;;;;;5073157;28;20037;-73
2022/06/19 09:08:50;;;;;;;8.15;2.17;;;14.90;99.90;;;;;;5073182;28;20074;-72
2022/06/19 09:11:40;;;;;;;8.38;2.05;;;15.00;99.90;;;;;;5061684;28;20033;-72
2022/06/19 09:14:50;;;;;;;14.23;2.97;;;14.90;99.90;;;;;;5070550;28;20043;-73
2022/06/19 09:17:29;;;;;;;7.50;1.75;;;14.80;99.90;;;;;;5066544;28;20427;-72
2022/06/19 09:19:57;;;;;;;11.48;2.30;;;14.90;99.90;;;;;;5072027;28;20035;-72
2022/06/19 09:22:44;;;;;;;9.02;1.63;;;15.00;99.90;;;;;;5071074;28;20456;-72
2022/06/19 09:25:32;;;;;;;7.07;2.00;;;15.10;99.90;;;;;;5072784;28;20037;-72
2022/06/19 09:28:04;;;;;;;9.23;2.28;;;15.10;99.90;;;;;;5071178;28;20083;-73
2022/06/19 09:30:35;;;;;;;5.57;1.52;;;15.20;99.90;;;;;;5072167;28;20043;-72
2022/06/19 09:33:08;;;;;;;9.35;1.58;;;14.90;99.90;;;;;;5072802;28;20040;-72
2022/06/19 09:35:42;;;;;;;7.90;1.58;;;14.90;99.90;;;;;;5072631;28;20051;-72
2022/06/19 09:38:15;;;;;;;;;;;15.00;99.90;;;;;;5068090;28;20544;-72
2022/06/19 09:40:43;;;;;;;9.65;1.80;;;14.90;99.90;;;;;;5056993;28;20370;-72
2022/06/19 09:43:27;;;;;;;6.07;1.30;;;14.90;99.90;;;;;;5059403;28;20037;-72
2022/06/19 09:45:58;;;;;;;4.80;1.52;;;15.00;99.90;;;;;;5072476;28;20044;-71
2022/06/19 09:48:38;;;;;;;10.13;1.55;;;14.90;99.90;;;;;;5072516;28;20045;-73
2022/06/19 09:51:07;;;;;;;5.07;1.30;;;14.90;99.90;;;;;;5071884;28;20048;-72
2022/06/19 09:53:44;;;;;;;8.35;1.35;;;15.00;99.90;;;;;;5072407;28;20039;-72
2022/06/19 09:56:21;;;;;;;9.38;1.38;;;15.10;99.90;;;;;;5072157;28;20036;-71
2022/06/19 09:59:14;;;;;;;7.05;1.77;;;15.10;99.90;;;;;;5071718;28;20124;-72
2022/06/19 10:01:42;;;;;;;4.88;1.48;;;15.00;99.90;;;;;;5070923;28;20070;-74
2022/06/19 10:04:19;;;;;;;7.55;1.67;;;15.00;99.90;;;;;;5071437;28;20043;-72
2022/06/19 10:06:54;;;;;;;6.88;1.80;;;15.30;99.90;;;;;;5070768;28;20128;-72
2022/06/19 10:09:19;;;;;;;5.35;1.80;;;15.20;99.90;;;;;;5072071;28;20029;-72
2022/06/19 10:11:46;;;;;;;7.13;1.80;;;15.40;99.90;;;;;;5070386;28;20044;-72
2022/06/19 10:14:31;;;;;;;4.85;1.98;;;15.30;99.90;;;;;;5071822;28;20051;-72
2022/06/19 10:17:45;;;;;;;6.93;1.70;;;15.20;99.90;;;;;;5071905;28;20083;-72
2022/06/19 10:20:18;;;;;;;5.30;1.38;;;15.10;99.90;;;;;;5071391;28;20050;-72
2022/06/19 10:22:47;;;;;;;3.30;1.13;;;15.10;99.90;;;;;;5071846;28;20725;-71
2022/06/19 10:25:45;;;;;;;6.43;1.23;;;15.00;99.90;;;;;;5071877;28;20032;-72
2022/06/19 10:28:31;;;;;;;7.53;1.30;;;15.00;99.90;;;;;;5135340;22;20055;-73
2022/06/19 10:31:24;;;;;;;3.88;1.38;;;15.00;99.90;;;;;;5091088;28;20051;-72
2022/06/19 10:34:12;;;;;;;6.43;1.40;;;15.00;99.90;;;;;;5090157;28;20575;-72
2022/06/19 10:37:02;;;;;;;9.70;1.30;;;15.10;99.90;;;;;;5094154;28;20504;-71
2022/06/19 10:39:49;;;;;;;6.82;1.30;;;15.20;99.90;;;;;;5110803;28;20035;-70
2022/06/19 10:42:30;;;;;;;4.15;1.00;;;15.10;99.90;;;;;;5110442;28;20561;-71
2022/06/19 10:45:07;;;;;;;4.60;0.88;;;15.10;99.90;;;;;;5110381;28;20046;-71
2022/06/19 10:47:49;;;;;;;4.60;1.05;;;15.10;99.90;;;;;;5110478;28;20047;-72
2022/06/19 10:50:21;;;;;;;6.97;1.65;;;15.10;99.90;;;;;;5110380;28;20040;-72
2022/06/19 10:53:17;;;;;;;7.85;1.13;;;15.20;99.90;;;;;;5110932;28;20045;-72
2022/06/19 10:56:18;;;;;;;4.47;0.93;;;15.20;99.90;;;;;;5110723;28;20048;-72
2022/06/19 10:58:45;;;;;;;3.85;0.93;;;15.20;99.90;;;;;;5045171;28;20081;-73
2022/06/19 11:04:06;;;;;;;3.70;0.85;;;15.20;99.90;;;;;;5079103;28;20044;-72
2022/06/19 11:04:08;;;;;;;6.40;1.17;;;15.30;99.90;;;;;;5081524;28;20037;-73
2022/06/19 11:07:02;;;;;;;8.07;1.42;;;15.30;99.90;;;;;;5065916;28;20139;-75
2022/06/19 11:09:39;;;;;;;6.55;1.15;;;15.50;99.90;;;;;;5087152;28;20037;-75
2022/06/19 11:12:23;;;;;;;5.18;1.00;;;15.40;99.90;;;;;;5053509;28;20066;-74
2022/06/19 11:14:58;;;;;;;2.83;1.30;;;15.50;99.90;;;;;;5073805;28;20079;-74
2022/06/19 11:17:36;;;;;;;2.35;0.73;;;15.50;99.90;;;;;;5074304;28;20045;-75
2022/06/19 11:20:25;;;;;;;3.17;1.13;;;15.50;99.90;;;;;;5075109;28;20037;-74
2022/06/19 11:23:05;;;;;;;3.42;1.08;;;15.60;99.90;;;;;;5074221;28;20422;-74
2022/06/19 11:25:39;;;;;;;5.90;0.80;;;15.70;99.90;;;;;;5075781;28;20033;-76
2022/06/19 11:28:17;;;;;;;3.92;0.75;;;15.60;99.90;;;;;;5073731;28;20052;-74
2022/06/19 11:30:51;;;;;;;3.90;0.57;;;15.70;99.90;;;;;;5073536;28;20051;-74
2022/06/19 11:33:28;;;;;;;4.70;0.90;;;15.70;99.90;;;;;;5073867;28;20045;-74
2022/06/19 11:35:57;;;;;;;1.88;0.50;;;15.70;99.90;;;;;;5075102;28;20047;-74
2022/06/19 11:38:39;;;;;;;2.38;1.15;;;15.60;99.90;;;;;;5073891;28;20044;-74
2022/06/19 11:41:25;;;;;;;3.15;0.65;;;15.60;99.90;;;;;;5073353;28;20487;-73
2022/06/19 11:44:03;;;;;;;1.98;0.50;;;15.60;99.90;;;;;;5073582;28;20079;-74
2022/06/19 11:46:29;;;;;;;4.60;0.60;;;15.40;99.90;;;;;;5075014;28;20526;-74
2022/06/19 11:48:54;;;;;;;1.27;0.43;;;15.50;99.90;;;;;;5073745;28;20045;-74
2022/06/19 11:51:22;;;;;;;2.85;0.77;;;15.50;99.90;;;;;;5073262;28;20093;-74
2022/06/19 11:53:55;;;;;;;6.18;1.00;;;15.50;99.90;;;;;;5073497;28;20550;-72
2022/06/19 11:56:30;;;;;;;4.47;1.17;;;15.50;99.90;;;;;;5073476;28;20049;-73
2022/06/19 11:58:59;;;;;;;3.53;0.70;;;15.30;99.90;;;;;;5074026;28;20438;-76
2022/06/19 12:01:54;;;;;;;4.53;0.80;;;15.30;99.90;;;;;;5066351;28;20036;-73
2022/06/19 12:04:38;;;;;;;4.95;1.85;;;15.30;99.90;;;;;;5056407;28;20045;-73
2022/06/19 12:07:13;;;;;;;4.03;1.70;;;15.10;99.90;;;;;;5073833;28;20059;-77
2022/06/19 12:09:52;;;;;;;4.65;1.45;;;15.10;99.90;;;;;;5073004;28;20071;-72
2022/06/19 12:12:20;;;;;;;4.53;1.15;;;15.20;99.90;;;;;;5100514;28;20039;-72
2022/06/19 12:14:54;;;;;;;5.80;1.05;;;15.00;99.90;;;;;;5100597;28;20051;-72
2022/06/19 12:17:32;;;;;;;3.28;0.90;;;15.00;99.90;;;;;;5093400;28;20063;-73
2022/06/19 12:19:59;;;;;;;3.75;1.00;;;15.00;99.90;;;;;;5092899;28;20043;-72
2022/06/19 12:22:43;;;;;;;3.40;1.05;;;15.00;99.90;;;;;;5093109;28;20104;-73
2022/06/19 12:25:25;;;;;;;4.13;1.00;;;15.10;99.90;;;;;;5075013;28;20040;-73
2022/06/19 12:28:02;;;;;;;3.42;1.02;;;15.20;99.90;;;;;;5088887;28;20118;-73
2022/06/19 12:30:33;;;;;;;7.20;1.38;;;15.10;99.90;;;;;;5092653;28;20105;-73
2022/06/19 12:33:03;;;;;;;4.68;1.02;;;15.20;99.90;;;;;;5086350;28;20031;-72
2022/06/19 12:35:31;;;;;;;6.68;1.33;;;15.20;99.90;;;;;;5088443;28;20047;-72
2022/06/19 12:37:57;;;;;;;4.18;1.00;;;15.30;99.90;;;;;;5074408;28;20040;-72
2022/06/19 12:40:30;;;;;;;3.85;0.98;;;15.30;99.90;;;;;;5093476;28;20411;-73
2022/06/19 12:43:13;;;;;;;4.40;0.93;;;15.60;99.90;;;;;;5092456;28;20536;-74
2022/06/19 12:45:51;;;;;;;4.82;1.65;;;15.60;99.90;;;;;;5093935;28;20036;-73
2022/06/19 12:48:20;;;;;;;5.35;1.20;;;15.70;99.90;;;;;;5092718;28;20036;-72
2022/06/19 12:50:56;;;;;;;5.22;1.45;;;15.80;99.90;;;;;;5092083;28;20044;-72
2022/06/19 12:53:22;;;;;;;9.18;3.38;;;15.70;99.90;;;;;;5093583;28;20533;-73
2022/06/19 12:56:05;;;;;;;5.97;1.05;;;15.70;99.90;;;;;;5092323;28;20071;-73
2022/06/19 12:58:39;;;;;;;5.57;0.88;;;15.80;99.90;;;;;;5088311;28;20088;-73
2022/06/19 13:01:21;;;;;;;3.33;0.80;;;15.90;99.90;;;;;;5092062;28;20063;-73
2022/06/19 13:04:10;;;;;;;5.75;1.40;;;15.90;99.90;;;;;;5091937;28;20040;-73
2022/06/19 13:07:06;;;;;;;5.80;1.10;;;16.00;99.90;;;;;;5092356;28;20044;-73
2022/06/19 13:09:53;;;;;;;2.47;1.10;;;15.80;99.90;;;;;;5091897;28;20047;-74
2022/06/19 13:12:48;;;;;;;4.57;1.42;;;15.90;99.90;;;;;;5092052;28;20051;-73